Time;durP1;ratioP1;P1;durP2;ratioP2;P2;SDS_P1;SDS_P2;PMS_P1;PMS_P2;Temp;Humidity;BMP_temperature;BMP_pressure;BME280_temperature;BME280_humidity;BME280_pressure;Samples;Min_cycle;Max_cycle;Signal;HPM_P1;HPM_P2
2023/07/30 00:00:51;;;;;;;2.85;2.03;;;;;;;17.43;63.89;96211.97;5093247;28;20079;-63
2023/07/30 00:03:18;;;;;;;3.22;2.60;;;;;;;17.39;64.14;96207.00;5093290;28;20040;-61
2023/07/30 00:05:53;;;;;;;2.40;2.20;;;;;;;17.34;64.24;96211.78;5093135;28;20093;-61
2023/07/30 00:08:21;;;;;;;3.55;2.40;;;;;;;17.36;64.63;96213.38;5093229;28;20052;-61
2023/07/30 00:10:49;;;;;;;3.08;2.17;;;;;;;17.37;64.70;96214.22;5093435;28;20047;-61
2023/07/30 00:13:16;;;;;;;4.07;2.15;;;;;;;17.38;64.15;96216.75;5093152;28;20040;-61
2023/07/30 00:15:43;;;;;;;3.10;2.25;;;;;;;17.39;64.75;96214.94;5093167;28;20083;-62
2023/07/30 00:18:10;;;;;;;5.03;2.10;;;;;;;17.38;64.88;96222.06;5093273;28;20079;-61
2023/07/30 00:20:37;;;;;;;2.05;1.85;;;;;;;17.35;64.55;96219.63;5093169;28;20456;-62
2023/07/30 00:23:04;;;;;;;3.08;2.30;;;;;;;17.38;64.87;96221.19;5093126;28;20093;-61
2023/07/30 00:25:32;;;;;;;2.95;2.00;;;;;;;17.39;65.17;96225.50;5092533;28;20041;-61
2023/07/30 00:27:59;;;;;;;4.72;2.88;;;;;;;17.36;65.06;96210.72;5093039;28;20048;-61
2023/07/30 00:30:26;;;;;;;1.92;1.73;;;;;;;17.35;64.79;96210.84;5092997;28;20044;-61
2023/07/30 00:32:53;;;;;;;3.42;2.63;;;;;;;17.35;64.90;96216.97;5093223;28;20084;-62
2023/07/30 00:35:20;;;;;;;2.95;2.10;;;;;;;17.34;65.00;96209.97;5111024;28;20096;-61
2023/07/30 00:37:47;;;;;;;2.70;2.38;;;;;;;17.35;64.57;96216.97;5113394;28;20405;-62
2023/07/30 00:40:14;;;;;;;4.68;2.45;;;;;;;17.36;64.70;96212.50;5095617;28;20056;-61
2023/07/30 00:42:42;;;;;;;2.42;2.22;;;;;;;17.36;65.11;96213.38;5092953;28;20181;-62
2023/07/30 00:45:11;;;;;;;3.95;2.30;;;;;;;17.33;64.74;96224.16;5092569;28;20101;-62
2023/07/30 00:47:39;;;;;;;4.18;1.80;;;;;;;17.32;64.87;96221.63;5092986;28;20131;-62
2023/07/30 00:50:08;;;;;;;2.45;2.17;;;;;;;17.26;65.15;96221.13;5092571;28;20554;-62
2023/07/30 00:52:36;;;;;;;3.03;2.25;;;;;;;17.17;65.15;96219.97;5092556;28;20055;-62
2023/07/30 00:55:04;;;;;;;2.22;2.03;;;;;;;17.15;65.05;96215.72;5108044;28;20047;-61
2023/07/30 00:57:32;;;;;;;2.83;2.30;;;;;;;17.13;65.17;96217.66;5113212;28;20047;-61
2023/07/30 01:00:04;;;;;;;4.60;2.35;;;;;;;17.13;65.66;96222.94;5098004;28;20499;-61
2023/07/30 01:02:32;;;;;;;2.63;2.42;;;;;;;17.10;65.92;96217.84;5112450;28;20047;-61
2023/07/30 01:05:00;;;;;;;4.25;2.20;;;;;;;17.07;65.84;96218.91;5098048;28;20101;-61
2023/07/30 01:07:27;;;;;;;2.35;1.92;;;;;;;17.03;65.71;96212.97;5092790;28;20514;-61
2023/07/30 01:09:54;;;;;;;4.32;2.20;;;;;;;17.04;66.18;96219.94;5092959;28;20105;-61
2023/07/30 01:12:22;;;;;;;4.50;2.40;;;;;;;16.98;66.19;96209.78;5092708;28;20143;-61
2023/07/30 01:14:50;;;;;;;2.42;2.15;;;;;;;16.90;66.46;96214.75;5092468;28;20544;-60
2023/07/30 01:17:19;;;;;;;2.63;2.42;;;;;;;16.85;66.54;96211.56;5092691;28;20052;-60
2023/07/30 01:19:47;;;;;;;2.63;2.42;;;;;;;16.82;66.83;96204.72;5092403;28;20055;-60
2023/07/30 01:22:15;;;;;;;2.75;2.47;;;;;;;16.79;66.85;96207.56;5092512;28;20048;-60
2023/07/30 01:24:42;;;;;;;2.58;2.38;;;;;;;16.72;66.86;96206.28;5092376;28;20105;-60
2023/07/30 01:27:17;;;;;;;2.60;2.40;;;;;;;16.66;66.88;96205.78;5092580;28;20123;-60
2023/07/30 01:29:50;;;;;;;3.10;2.75;;;;;;;16.65;67.37;96205.88;5092300;28;20083;-60
2023/07/30 01:32:21;;;;;;;3.65;2.28;;;;;;;16.63;67.36;96198.06;5092644;28;20059;-61
2023/07/30 01:34:50;;;;;;;6.82;2.60;;;;;;;16.58;67.50;96202.81;5092348;28;20071;-61
2023/07/30 01:37:19;;;;;;;3.00;2.30;;;;;;;16.56;67.62;96204.72;5094115;28;20120;-60
2023/07/30 01:39:48;;;;;;;7.53;2.33;;;;;;;16.55;67.39;96201.22;5106270;28;20094;-60
2023/07/30 01:42:16;;;;;;;3.05;2.33;;;;;;;16.57;67.50;96209.03;5116148;28;20097;-61
2023/07/30 01:44:43;;;;;;;3.08;2.25;;;;;;;16.54;67.56;96204.81;5087556;28;20051;-61
2023/07/30 01:47:10;;;;;;;2.83;2.28;;;;;;;16.54;67.58;96202.19;5095929;28;20048;-61
2023/07/30 01:49:38;;;;;;;2.55;2.15;;;;;;;16.50;67.63;96213.88;5095647;28;20127;-61
2023/07/30 01:52:05;;;;;;;3.30;2.55;;;;;;;16.42;67.98;96209.13;5095868;28;20089;-61
2023/07/30 01:54:33;;;;;;;3.25;2.20;;;;;;;16.40;68.11;96211.03;5095494;28;20055;-61
2023/07/30 01:57:02;;;;;;;4.57;2.42;;;;;;;16.36;68.01;96208.69;5095900;28;20083;-61
2023/07/30 01:59:29;;;;;;;5.22;2.58;;;;;;;16.34;68.19;96211.41;5099998;28;20039;-60
2023/07/30 02:01:56;;;;;;;3.35;2.25;;;;;;;16.36;68.20;96211.31;5103872;28;20051;-61
2023/07/30 02:04:23;;;;;;;2.33;2.13;;;;;;;16.34;68.41;96211.41;5106895;28;20044;-61
2023/07/30 02:06:50;;;;;;;2.97;1.98;;;;;;;16.29;68.09;96206.44;5115990;28;20047;-61
2023/07/30 02:09:17;;;;;;;2.83;2.22;;;;;;;16.28;68.41;96207.41;5110844;28;20108;-61
2023/07/30 02:11:45;;;;;;;3.15;2.35;;;;;;;16.27;68.62;96205.72;5105098;28;20494;-61
2023/07/30 02:14:12;;;;;;;4.35;2.58;;;;;;;16.21;68.53;96208.75;5096465;28;20055;-61
2023/07/30 02:16:39;;;;;;;4.53;2.60;;;;;;;16.15;68.46;96203.88;5095259;28;20406;-61
2023/07/30 02:19:06;;;;;;;5.03;2.63;;;;;;;16.19;68.88;96207.19;5101961;28;20047;-61
2023/07/30 02:21:36;;;;;;;3.70;2.15;;;;;;;16.12;68.85;96209.38;5115604;28;20083;-62
2023/07/30 02:24:03;;;;;;;3.85;2.85;;;;;;;16.06;69.04;96207.97;5110033;28;20127;-62
2023/07/30 02:26:30;;;;;;;2.53;2.33;;;;;;;16.05;69.29;96206.28;5095177;28;20044;-62
2023/07/30 02:29:00;;;;;;;2.90;2.65;;;;;;;15.97;69.39;96205.94;5094861;28;20052;-61
2023/07/30 02:31:27;;;;;;;4.32;2.53;;;;;;;15.91;69.54;96201.88;5095121;28;20102;-62
2023/07/30 02:33:54;;;;;;;3.13;2.50;;;;;;;15.90;69.74;96206.28;5098835;28;20435;-62
2023/07/30 02:36:21;;;;;;;2.95;2.47;;;;;;;15.92;69.68;96211.47;5114505;28;20134;-61
2023/07/30 02:38:48;;;;;;;3.42;2.58;;;;;;;15.88;69.45;96210.84;5097773;28;20039;-62
2023/07/30 02:41:15;;;;;;;3.17;2.50;;;;;;;15.84;69.72;96217.28;5115271;28;20134;-63
2023/07/30 02:43:42;;;;;;;4.00;2.40;;;;;;;15.78;70.11;96215.03;5113418;28;20507;-64
2023/07/30 02:46:11;;;;;;;2.38;2.17;;;;;;;15.80;70.14;96218.38;5114891;28;20172;-62
2023/07/30 02:48:38;;;;;;;2.53;2.33;;;;;;;15.82;70.15;96220.94;5112825;28;20478;-64
2023/07/30 02:51:05;;;;;;;4.18;2.35;;;;;;;15.79;70.32;96220.19;5094766;28;20048;-62
2023/07/30 02:53:32;;;;;;;2.70;2.42;;;;;;;15.75;70.14;96223.13;5102410;28;20067;-64
2023/07/30 02:55:59;;;;;;;4.63;2.40;;;;;;;15.63;70.72;96222.13;5094664;28;20511;-64
2023/07/30 02:58:26;;;;;;;3.60;2.90;;;;;;;15.60;70.90;96223.16;5094515;28;20040;-62
2023/07/30 03:00:54;;;;;;;4.47;2.50;;;;;;;15.58;71.03;96222.41;5114428;28;20044;-62
2023/07/30 03:03:22;;;;;;;6.65;2.63;;;;;;;15.59;71.21;96223.25;5113013;28;20051;-65
2023/07/30 03:05:49;;;;;;;4.07;2.40;;;;;;;15.60;71.32;96223.16;5094295;28;20129;-64
2023/07/30 03:08:16;;;;;;;7.03;2.50;;;;;;;15.62;70.99;96221.25;5094361;28;20044;-65
2023/07/30 03:10:43;;;;;;;3.05;2.53;;;;;;;15.58;70.94;96222.41;5094238;28;20516;-64
2023/07/30 03:13:11;;;;;;;2.35;2.15;;;;;;;15.58;70.83;96224.19;5095306;28;20052;-64
2023/07/30 03:15:38;;;;;;;3.47;2.70;;;;;;;15.60;71.13;96220.53;5096735;28;20048;-65
2023/07/30 03:18:06;;;;;;;2.70;2.50;;;;;;;15.63;71.12;96228.22;5094398;28;20496;-63
2023/07/30 03:20:34;;;;;;;3.00;2.60;;;;;;;15.61;71.14;96229.25;5110941;28;20121;-63
2023/07/30 03:23:01;;;;;;;2.40;2.20;;;;;;;15.52;71.70;96228.91;5114525;28;20055;-65
2023/07/30 03:25:29;;;;;;;3.92;2.30;;;;;;;15.53;71.60;96237.66;5112687;28;20043;-63
2023/07/30 03:27:56;;;;;;;3.08;2.60;;;;;;;15.58;71.40;96240.00;5114411;28;20075;-63
2023/07/30 03:30:23;;;;;;;2.90;2.20;;;;;;;15.64;71.51;96237.84;5098495;28;20513;-63
2023/07/30 03:32:50;;;;;;;5.55;2.58;;;;;;;15.71;71.32;96242.72;5094018;28;20090;-63
2023/07/30 03:35:17;;;;;;;4.45;2.63;;;;;;;15.79;71.40;96245.72;5093634;28;20482;-64
2023/07/30 03:37:46;;;;;;;3.05;2.45;;;;;;;15.78;71.00;96241.38;5093836;28;20040;-63
2023/07/30 03:40:13;;;;;;;5.35;2.28;;;;;;;15.76;71.11;96238.00;5107568;28;20493;-66
2023/07/30 03:42:40;;;;;;;2.65;2.45;;;;;;;15.79;71.11;96241.28;5114120;28;20056;-65
2023/07/30 03:45:08;;;;;;;7.38;3.20;;;;;;;15.81;70.92;96235.91;5112008;28;20082;-64
2023/07/30 03:47:36;;;;;;;4.60;2.50;;;;;;;15.83;71.07;96231.38;5113787;28;20039;-64
2023/07/30 03:50:03;;;;;;;3.13;2.50;;;;;;;15.86;71.17;96235.63;5098016;28;20503;-64
2023/07/30 03:52:30;;;;;;;3.88;2.63;;;;;;;15.91;71.33;96239.66;5098053;28;20044;-62
2023/07/30 03:54:59;;;;;;;2.67;2.47;;;;;;;15.95;71.41;96234.19;5104951;28;20047;-63
2023/07/30 03:57:26;;;;;;;5.90;2.40;;;;;;;16.17;71.25;96231.84;5113857;28;20047;-66
2023/07/30 03:59:53;;;;;;;3.95;2.20;;;;;;;16.47;70.96;96235.22;5102882;28;20070;-64
2023/07/30 04:02:21;;;;;;;3.95;2.78;;;;;;;16.85;69.37;96238.00;5092843;28;20052;-64
2023/07/30 04:04:49;;;;;;;2.92;2.30;;;;;;;17.30;68.15;96245.53;5092895;28;20055;-64
2023/07/30 04:07:17;;;;;;;4.53;2.40;;;;;;;17.84;66.13;96248.78;5093424;28;20044;-62
2023/07/30 04:09:44;;;;;;;3.45;2.33;;;;;;;18.43;64.46;96247.16;5102648;28;20393;-63
2023/07/30 04:12:13;;;;;;;3.33;2.28;;;;;;;19.08;62.03;96259.16;5099814;28;20097;-62
2023/07/30 04:14:40;;;;;;;3.05;2.17;;;;;;;19.72;60.61;96254.25;5101832;28;20065;-66
2023/07/30 04:17:07;;;;;;;3.13;2.08;;;;;;;20.32;57.95;96259.19;5113658;28;20047;-62
2023/07/30 04:19:34;;;;;;;3.30;2.33;;;;;;;20.87;56.53;96249.41;5105258;28;20040;-64
2023/07/30 04:22:01;;;;;;;2.38;2.17;;;;;;;21.37;54.57;96255.00;5092942;28;20048;-63
2023/07/30 04:24:29;;;;;;;4.60;2.00;;;;;;;21.79;53.77;96260.22;5099788;28;20039;-64
2023/07/30 04:26:56;;;;;;;2.67;2.10;;;;;;;22.16;52.34;96264.13;5113469;28;20096;-64
2023/07/30 04:29:24;;;;;;;2.20;2.00;;;;;;;22.56;51.98;96256.97;5106962;28;20206;-64
2023/07/30 04:31:52;;;;;;;2.97;1.90;;;;;;;22.88;50.66;96260.34;5093172;28;20044;-64
2023/07/30 04:34:19;;;;;;;5.80;2.10;;;;;;;23.25;50.13;96266.72;5092737;28;20044;-64
2023/07/30 04:36:46;;;;;;;2.33;1.83;;;;;;;23.68;49.32;96261.81;5093045;28;20126;-63
2023/07/30 04:39:13;;;;;;;2.38;1.85;;;;;;;24.11;48.84;96272.00;5092723;28;20127;-64
2023/07/30 04:41:40;;;;;;;2.33;2.10;;;;;;;24.46;48.06;96273.03;5093000;28;20054;-63
2023/07/30 04:44:07;;;;;;;6.53;1.83;;;;;;;24.78;47.37;96278.00;5092593;28;20504;-65
2023/07/30 04:46:36;;;;;;;2.35;1.80;;;;;;;25.03;46.46;96275.53;5092938;28;20052;-65
2023/07/30 04:49:04;;;;;;;2.17;1.98;;;;;;;25.36;46.23;96275.75;5092869;28;20055;-65
2023/07/30 04:51:32;;;;;;;2.00;1.80;;;;;;;25.63;46.40;96276.59;5093073;28;20047;-65
2023/07/30 04:53:59;;;;;;;4.38;1.70;;;;;;;25.92;46.29;96283.44;5095071;28;20467;-67
2023/07/30 04:56:26;;;;;;;4.68;2.33;;;;;;;26.25;46.14;96282.69;5112703;28;20051;-65
2023/07/30 04:58:53;;;;;;;1.67;1.58;;;;;;;26.56;45.57;96286.63;5109141;28;20051;-61
2023/07/30 05:01:21;;;;;;;1.80;1.70;;;;;;;26.72;44.57;96281.28;5091344;28;20054;-63
2023/07/30 05:03:50;;;;;;;3.08;2.08;;;;;;;26.91;45.19;96281.94;5092149;28;20056;-62
2023/07/30 05:06:17;;;;;;;3.55;2.05;;;;;;;27.17;44.37;96277.41;5092624;28;20087;-64
2023/07/30 05:08:45;;;;;;;2.95;2.00;;;;;;;27.43;43.41;96276.38;5091579;28;20119;-63
2023/07/30 05:11:12;;;;;;;2.65;1.92;;;;;;;27.73;43.21;96272.13;5072603;28;20048;-61
2023/07/30 05:13:40;;;;;;;1.80;1.70;;;;;;;28.03;42.93;96279.56;5076013;28;20101;-61
2023/07/30 05:16:07;;;;;;;2.28;1.98;;;;;;;28.31;44.04;96283.63;5096743;28;20047;-63
2023/07/30 05:18:35;;;;;;;2.90;2.00;;;;;;;28.58;43.50;96276.91;5096517;28;20048;-62
2023/07/30 05:21:05;;;;;;;3.05;2.00;;;;;;;28.79;43.21;96277.25;5099399;28;20126;-61
2023/07/30 05:23:33;;;;;;;5.32;2.00;;;;;;;28.98;40.33;96274.09;5096250;28;20054;-62
2023/07/30 05:26:01;;;;;;;4.43;2.20;;;;;;;29.20;40.43;96281.47;5115084;28;20048;-62
2023/07/30 05:28:28;;;;;;;2.03;1.75;;;;;;;29.45;39.91;96273.97;5116662;28;20044;-64
2023/07/30 05:30:56;;;;;;;2.08;1.88;;;;;;;29.73;38.86;96269.81;5098248;28;20383;-63
2023/07/30 05:33:23;;;;;;;38.83;4.55;;;;;;;29.91;37.96;96276.69;5096315;28;20131;-62
2023/07/30 05:35:51;;;;;;;22.52;3.50;;;;;;;30.18;36.67;96279.72;5095861;28;20056;-63
2023/07/30 05:38:20;;;;;;;18.92;3.38;;;;;;;30.48;37.66;96287.75;5096089;28;20052;-63
2023/07/30 05:40:48;;;;;;;3.85;1.90;;;;;;;30.77;36.74;96276.03;5096633;28;20039;-64
2023/07/30 05:43:15;;;;;;;3.05;1.75;;;;;;;30.97;36.98;96275.38;5095988;28;20055;-65
2023/07/30 05:45:44;;;;;;;3.10;1.85;;;;;;;31.17;34.89;96274.69;5111795;28;20085;-65
2023/07/30 05:48:11;;;;;;;3.03;1.77;;;;;;;31.35;33.98;96265.28;5116372;28;20044;-64
2023/07/30 05:50:38;;;;;;;3.83;2.10;;;;;;;31.49;35.48;96266.22;5100629;28;20048;-65
2023/07/30 05:53:05;;;;;;;2.30;2.10;;;;;;;31.72;36.69;96273.22;5095903;28;20048;-65
2023/07/30 05:55:34;;;;;;;2.38;2.17;;;;;;;31.90;35.17;96276.22;5095202;28;20044;-64
2023/07/30 05:58:01;;;;;;;5.55;2.00;;;;;;;32.12;34.14;96275.28;5095723;28;20044;-64
2023/07/30 06:00:29;;;;;;;2.67;2.03;;;;;;;32.25;32.85;96269.94;5108787;28;20069;-65
2023/07/30 06:02:57;;;;;;;4.78;2.33;;;;;;;32.24;32.45;96273.66;5116066;28;20058;-66
2023/07/30 06:05:24;;;;;;;2.22;1.85;;;;;;;32.28;31.40;96269.53;5102598;28;20040;-66
2023/07/30 06:07:52;;;;;;;1.92;1.73;;;;;;;32.35;29.82;96272.22;5095191;28;20055;-65
2023/07/30 06:10:19;;;;;;;2.35;1.85;;;;;;;32.57;30.80;96261.31;5094275;28;20820;-64
2023/07/30 06:12:48;;;;;;;3.92;2.10;;;;;;;32.73;31.22;96268.19;5094165;28;20052;-64
2023/07/30 06:15:17;;;;;;;2.00;1.80;;;;;;;32.93;32.18;96267.38;5106757;28;20078;-64
2023/07/30 06:17:45;;;;;;;3.30;1.92;;;;;;;33.12;32.02;96268.44;5115655;28;20051;-66
2023/07/30 06:20:13;;;;;;;2.10;1.90;;;;;;;33.35;30.84;96269.84;5104099;28;20040;-64
2023/07/30 06:22:40;;;;;;;7.90;2.03;;;;;;;33.62;28.39;96271.75;5095183;28;20059;-64
2023/07/30 06:25:08;;;;;;;4.07;2.17;;;;;;;33.86;29.06;96272.09;5094027;28;20047;-65
2023/07/30 06:27:35;;;;;;;7.95;1.85;;;;;;;33.94;30.20;96277.25;5095194;28;20099;-64
2023/07/30 06:30:05;;;;;;;2.35;1.83;;;;;;;34.17;27.27;96273.25;5094918;28;20482;-64
2023/07/30 06:32:32;;;;;;;4.63;1.98;;;;;;;34.26;27.89;96276.53;5095146;28;20052;-65
2023/07/30 06:35:00;;;;;;;2.75;2.17;;;;;;;34.34;27.16;96270.03;5099687;28;20444;-66
2023/07/30 06:37:27;;;;;;;3.40;1.98;;;;;;;34.52;27.03;96274.72;5094929;28;20048;-65
2023/07/30 06:39:55;;;;;;;3.05;1.80;;;;;;;34.64;26.24;96262.09;5094816;28;20060;-65
2023/07/30 06:42:22;;;;;;;6.20;2.15;;;;;;;34.78;27.18;96268.31;5094829;28;20422;-65
2023/07/30 06:44:50;;;;;;;3.38;1.77;;;;;;;34.79;25.73;96266.41;5095883;28;20192;-65
2023/07/30 06:47:18;;;;;;;2.38;1.80;;;;;;;34.81;27.14;96266.19;5094771;28;20051;-65
2023/07/30 06:49:47;;;;;;;10.05;2.35;;;;;;;35.05;27.50;96264.56;5101119;28;20460;-66
2023/07/30 06:52:14;;;;;;;8.75;1.80;;;;;;;35.24;26.62;96259.22;5114979;28;20047;-65
2023/07/30 06:54:42;;;;;;;3.10;1.70;;;;;;;35.36;27.05;96259.31;5108642;28;20044;-66
2023/07/30 06:57:09;;;;;;;6.82;2.25;;;;;;;35.35;27.45;96263.91;5094674;28;20052;-66
2023/07/30 06:59:36;;;;;;;4.72;2.00;;;;;;;35.64;25.63;96255.25;5099599;28;20067;-66
2023/07/30 07:02:05;;;;;;;5.30;2.20;;;;;;;35.76;25.47;96261.59;5114696;28;20048;-66
2023/07/30 07:04:34;;;;;;;2.95;1.83;;;;;;;35.85;25.46;96254.00;5109737;28;20080;-66
2023/07/30 07:07:03;;;;;;;4.70;2.17;;;;;;;35.92;25.14;96252.03;5094547;28;20040;-65
2023/07/30 07:09:32;;;;;;;12.15;1.90;;;;;;;36.07;25.58;96255.38;5094141;28;20042;-66
2023/07/30 07:12:00;;;;;;;3.08;1.85;;;;;;;36.17;25.19;96253.78;5094330;28;20481;-66
2023/07/30 07:14:29;;;;;;;1.85;1.70;;;;;;;36.38;24.85;96256.25;5095555;28;20047;-66
2023/07/30 07:16:57;;;;;;;1.80;1.63;;;;;;;36.38;24.85;96245.38;5094078;28;20051;-65
2023/07/30 07:19:24;;;;;;;4.78;1.85;;;;;;;36.65;25.36;96254.00;5096972;28;20075;-65
2023/07/30 07:21:54;;;;;;;4.78;2.00;;;;;;;36.81;24.37;96251.69;5114423;28;20135;-66
2023/07/30 07:24:22;;;;;;;4.05;2.10;;;;;;;36.92;23.89;96242.72;5109963;28;20126;-66
2023/07/30 07:26:49;;;;;;;3.40;2.20;;;;;;;37.00;23.56;96235.25;5113991;28;20054;-66
2023/07/30 07:29:17;;;;;;;3.38;1.90;;;;;;;36.78;23.39;96231.19;5112184;28;20417;-66
2023/07/30 07:31:46;;;;;;;3.85;2.20;;;;;;;36.67;23.02;96232.81;5093969;28;20131;-66
2023/07/30 07:34:14;;;;;;;4.57;1.83;;;;;;;36.57;23.96;96234.44;5094728;28;20051;-66
2023/07/30 07:36:41;;;;;;;8.98;1.90;;;;;;;36.72;24.77;96234.84;5099496;28;20128;-66
2023/07/30 07:39:10;;;;;;;8.63;1.80;;;;;;;36.77;23.76;96229.53;5093033;28;20570;-65
2023/07/30 07:41:37;;;;;;;2.30;1.73;;;;;;;36.76;24.63;96236.06;5114022;28;20409;-65
2023/07/30 07:44:05;;;;;;;2.90;2.00;;;;;;;36.83;23.43;96235.94;5113817;28;20544;-66
2023/07/30 07:46:32;;;;;;;3.13;1.90;;;;;;;36.82;24.68;96233.44;5091655;28;20401;-65
2023/07/30 07:49:00;;;;;;;4.88;2.08;;;;;;;36.92;25.47;96236.41;5090342;28;20055;-68
2023/07/30 07:51:28;;;;;;;2.33;2.08;;;;;;;37.01;24.43;96232.28;5092712;28;20098;-66
2023/07/30 07:53:55;;;;;;;7.40;1.90;;;;;;;37.02;23.39;96228.50;5093674;28;20044;-66
2023/07/30 07:56:24;;;;;;;5.60;1.83;;;;;;;37.13;24.05;96223.28;5094503;28;20048;-66
2023/07/30 07:58:52;;;;;;;5.60;2.25;;;;;;;37.34;24.61;96224.63;5093490;28;20169;-66
2023/07/30 08:01:20;;;;;;;3.15;1.77;;;;;;;37.35;24.08;96229.00;5111746;28;20122;-66
2023/07/30 08:03:50;;;;;;;6.88;2.10;;;;;;;36.53;23.26;96232.19;5113404;28;20416;-66
2023/07/30 08:06:18;;;;;;;3.72;2.03;;;;;;;36.48;23.13;96226.59;5095265;28;20116;-66
2023/07/30 08:08:45;;;;;;;3.63;1.67;;;;;;;36.22;24.81;96222.38;5106739;28;20130;-65
2023/07/30 08:11:12;;;;;;;3.65;1.90;;;;;;;36.15;25.18;96223.25;5096096;28;20127;-65
2023/07/30 08:13:42;;;;;;;2.03;1.83;;;;;;;36.09;25.49;96224.19;5093290;28;20044;-65
2023/07/30 08:16:09;;;;;;;;;;;;;;;36.17;25.51;96217.59;5110380;28;20047;-66
2023/07/30 08:18:37;;;;;;;6.28;2.10;;;;;;;36.40;25.21;96213.31;5113678;28;19920;-67
2023/07/30 08:21:04;;;;;;;4.53;2.00;;;;;;;36.62;25.20;96216.34;5097219;28;20486;-66
2023/07/30 08:23:33;;;;;;;3.65;1.92;;;;;;;36.81;23.60;96219.03;5093282;28;20135;-66
2023/07/30 08:26:00;;;;;;;2.65;1.88;;;;;;;36.69;24.02;96223.56;5108221;28;20048;-67
2023/07/30 08:28:28;;;;;;;3.10;2.30;;;;;;;36.28;23.00;96214.13;5113575;28;20493;-67
2023/07/30 08:31:03;;;;;;;2.47;1.85;;;;;;;36.09;24.13;96210.59;5098885;28;20050;-66
2023/07/30 08:33:31;;;;;;;4.18;2.00;;;;;;;36.13;25.32;96213.66;5093387;28;20040;-66
2023/07/30 08:35:59;;;;;;;3.30;2.00;;;;;;;36.44;24.76;96211.78;5107524;28;20043;-66
2023/07/30 08:38:27;;;;;;;2.78;2.00;;;;;;;36.49;24.38;96203.78;5113514;28;20485;-66
2023/07/30 08:40:54;;;;;;;5.70;2.20;;;;;;;36.41;25.48;96210.38;5106952;28;20035;-67
2023/07/30 08:43:22;;;;;;;2.72;2.10;;;;;;;36.32;24.88;96210.94;5112659;28;20055;-66
2023/07/30 08:45:49;;;;;;;7.65;2.00;;;;;;;36.37;25.39;96205.63;5102681;28;20044;-67
2023/07/30 08:48:19;;;;;;;2.00;1.80;;;;;;;36.20;24.14;96200.81;5116056;28;20047;-67
2023/07/30 08:50:49;;;;;;;2.83;1.85;;;;;;;36.04;23.29;96197.69;5101179;28;20044;-66
2023/07/30 08:53:16;;;;;;;;;;;;;;;35.61;24.09;96190.44;5096756;28;20056;-67
2023/07/30 08:55:44;;;;;;;3.83;1.88;;;;;;;35.47;24.19;96185.16;5113328;28;20437;-67
2023/07/30 08:58:13;;;;;;;3.08;1.85;;;;;;;35.16;24.51;96195.09;5114930;28;20101;-67
2023/07/30 09:00:43;;;;;;;2.55;1.92;;;;;;;35.22;25.75;96185.22;5113196;28;20050;-67
2023/07/30 09:03:13;;;;;;;;;;;;;;;34.84;25.23;96187.00;5115317;28;20519;-67
2023/07/30 09:05:42;;;;;;;2.17;1.70;;;;;;;34.91;25.84;96185.91;5104680;28;19967;-66
2023/07/30 09:08:12;;;;;;;4.90;2.00;;;;;;;35.12;25.48;96181.09;5096755;28;20447;-67
2023/07/30 09:10:40;;;;;;;2.23;1.93;;;;;;;35.16;24.29;96185.03;5108049;28;20066;-66
2023/07/30 09:13:08;;;;;;;1.92;1.77;;;;;;;34.97;25.06;96184.16;5116793;28;20051;-67
2023/07/30 09:15:38;;;;;;;5.03;1.83;;;;;;;34.87;24.70;96175.69;5105875;28;20048;-66
2023/07/30 09:18:05;;;;;;;2.53;1.77;;;;;;;34.78;23.87;96181.44;5096687;28;20084;-67
2023/07/30 09:20:39;;;;;;;1.60;1.50;;;;;;;34.59;25.79;96169.66;5106900;28;20130;-66
2023/07/30 09:23:09;;;;;;;4.55;2.08;;;;;;;34.61;24.89;96172.97;5116824;28;20066;-66
2023/07/30 09:25:39;;;;;;;5.38;4.72;;;;;;;34.71;26.83;96168.97;5105651;28;20048;-66
2023/07/30 09:28:07;;;;;;;19.52;17.15;;;;;;;35.09;26.31;96164.44;5096504;28;20044;-67
2023/07/30 09:30:34;;;;;;;18.27;14.27;;;;;;;35.32;26.15;96154.81;5096034;28;20055;-67
2023/07/30 09:33:02;;;;;;;13.27;11.32;;;;;;;35.59;25.00;96152.63;5096208;28;20051;-66
2023/07/30 09:35:29;;;;;;;9.55;8.63;;;;;;;35.67;25.53;96140.59;5105639;28;20044;-66
2023/07/30 09:38:01;;;;;;;41.03;36.28;;;;;;;35.72;25.03;96145.41;5116555;28;20101;-66
2023/07/30 09:40:34;;;;;;;2.30;2.10;;;;;;;35.85;24.53;96141.66;5106660;28;20081;-67
2023/07/30 09:43:04;;;;;;;4.38;2.08;;;;;;;35.88;25.98;96142.00;5096050;28;20040;-67
2023/07/30 09:45:36;;;;;;;7.60;3.00;;;;;;;35.86;25.70;96136.00;5105329;28;20477;-67
2023/07/30 09:48:05;;;;;;;4.78;2.28;;;;;;;35.92;24.94;96134.22;5116460;28;20050;-67
2023/07/30 09:50:33;;;;;;;6.43;2.40;;;;;;;36.06;23.83;96129.44;5106234;28;20055;-66
2023/07/30 09:53:02;;;;;;;5.63;2.05;;;;;;;36.02;23.59;96136.38;5095864;28;20047;-67
2023/07/30 09:55:30;;;;;;;3.55;2.20;;;;;;;35.36;25.59;96137.00;5095668;28;20044;-67
2023/07/30 09:57:59;;;;;;;2.65;2.00;;;;;;;35.47;23.93;96119.94;5095881;28;20498;-66
2023/07/30 10:00:28;;;;;;;3.30;2.30;;;;;;;35.28;24.13;96125.38;5104370;28;20054;-66
2023/07/30 10:02:58;;;;;;;2.53;2.33;;;;;;;35.18;23.57;96110.66;5115787;28;20100;-67
2023/07/30 10:05:30;;;;;;;4.50;4.13;;;;;;;35.26;24.36;96113.91;5106863;28;20048;-66
2023/07/30 10:08:01;;;;;;;2.55;2.13;;;;;;;35.15;23.77;96112.75;5095755;28;20143;-66
2023/07/30 10:10:31;;;;;;;6.75;2.10;;;;;;;35.05;25.19;96115.16;5104277;28;20059;-66
2023/07/30 10:13:05;;;;;;;4.03;3.63;;;;;;;35.26;25.01;96108.47;5115483;28;20143;-66
2023/07/30 10:15:36;;;;;;;4.85;2.25;;;;;;;35.49;24.72;96101.53;5106746;28;20509;-67
2023/07/30 10:18:03;;;;;;;2.40;2.13;;;;;;;35.50;23.65;96103.19;5079987;28;20044;-68
2023/07/30 10:20:32;;;;;;;4.13;2.30;;;;;;;35.71;23.70;96095.59;5084551;28;20052;-66
2023/07/30 10:23:01;;;;;;;2.65;2.13;;;;;;;35.72;23.78;96093.72;5095215;28;20109;-66
2023/07/30 10:25:31;;;;;;;4.68;1.73;;;;;;;35.62;23.77;96083.34;5094879;28;20051;-67
2023/07/30 10:28:01;;;;;;;7.35;2.45;;;;;;;35.21;24.02;96088.50;5095486;28;20059;-67
2023/07/30 10:30:35;;;;;;;3.05;1.70;;;;;;;35.07;24.35;96083.19;5094914;28;20044;-66
2023/07/30 10:33:06;;;;;;;3.72;3.28;;;;;;;35.17;24.47;96085.34;5095243;28;20107;-69
2023/07/30 10:35:42;;;;;;;4.63;1.90;;;;;;;35.33;24.75;96083.13;5094795;28;20180;-68
2023/07/30 10:38:18;;;;;;;6.45;2.30;;;;;;;35.33;23.52;96083.94;5095199;28;20048;-68
2023/07/30 10:41:06;;;;;;;2.60;2.40;;;;;;;35.46;23.86;96080.22;5105615;28;20089;-67
2023/07/30 10:43:38;;;;;;;2.10;1.90;;;;;;;35.53;25.11;96080.97;5115279;28;20500;-65
2023/07/30 10:46:06;;;;;;;2.55;2.05;;;;;;;35.50;23.59;96072.44;5101339;28;20048;-68
2023/07/30 10:48:35;;;;;;;3.55;1.80;;;;;;;35.15;23.33;96077.44;5094754;28;20048;-66
2023/07/30 10:51:05;;;;;;;3.43;2.17;;;;;;;34.94;24.97;96067.84;5094400;28;20409;-65
2023/07/30 10:53:33;;;;;;;5.25;2.00;;;;;;;35.04;24.81;96065.41;5094773;28;20044;-67
2023/07/30 10:56:02;;;;;;;2.50;1.90;;;;;;;35.34;24.58;96069.31;5096125;28;20404;-68
2023/07/30 10:58:31;;;;;;;2.42;2.00;;;;;;;35.26;24.01;96061.44;5094703;28;20047;-68
2023/07/30 11:01:04;;;;;;;3.03;1.83;;;;;;;35.28;24.09;96062.88;5106801;28;20519;-68
2023/07/30 11:03:32;;;;;;;2.78;1.80;;;;;;;35.32;24.07;96055.09;5114823;28;20056;-65
2023/07/30 11:06:00;;;;;;;1.98;1.77;;;;;;;35.50;24.38;96061.56;5101688;28;20032;-66
2023/07/30 11:08:34;;;;;;;3.60;2.25;;;;;;;35.57;23.63;96047.91;5094531;28;20044;-67
2023/07/30 11:11:03;;;;;;;6.55;2.05;;;;;;;35.47;23.25;96056.59;5093689;28;20048;-67
2023/07/30 11:13:36;;;;;;;2.20;2.00;;;;;;;35.52;24.01;96048.59;5094335;28;20051;-65
2023/07/30 11:16:07;;;;;;;5.63;2.10;;;;;;;35.55;24.25;96048.13;5094374;28;20044;-67
2023/07/30 11:18:35;;;;;;;5.32;1.90;;;;;;;35.58;23.12;96053.09;5094055;28;20044;-67
2023/07/30 11:21:08;;;;;;;3.55;2.15;;;;;;;35.74;22.84;96050.81;5105962;28;20043;-66
2023/07/30 11:23:37;;;;;;;2.92;1.92;;;;;;;35.88;22.33;96048.72;5105935;28;20048;-66
2023/07/30 11:26:06;;;;;;;2.28;1.95;;;;;;;35.76;23.02;96045.97;5105808;28;20404;-66
2023/07/30 11:28:36;;;;;;;4.07;2.10;;;;;;;35.41;23.10;96042.88;5094030;28;20444;-67
2023/07/30 11:31:06;;;;;;;3.15;2.05;;;;;;;35.52;23.67;96038.53;5106229;28;20043;-65
2023/07/30 11:33:35;;;;;;;3.15;2.20;;;;;;;35.67;24.18;96034.56;5114356;28;20043;-67
2023/07/30 11:36:04;;;;;;;4.53;1.98;;;;;;;35.68;23.79;96036.22;5101873;28;20050;-68
2023/07/30 11:38:37;;;;;;;2.70;2.20;;;;;;;35.80;24.19;96030.84;5093944;28;20079;-66